Time;durP1;ratioP1;P1;durP2;ratioP2;P2;SDS_P1;SDS_P2;PMS_P1;PMS_P2;Temp;Humidity;BMP_temperature;BMP_pressure;BME280_temperature;BME280_humidity;BME280_pressure;Samples;Min_cycle;Max_cycle;Signal;HPM_P1;HPM_P2
2022/04/26 03:36:07;;;;;;;57.77;2.57;;;;;;;;;;5094374;28;20457;-73
2022/04/26 03:38:34;;;;;;;57.77;2.70;;;;;;;;;;5093577;28;20969;-73
2022/04/26 03:41:01;;;;;;;57.83;2.70;;;;;;;;;;5094329;28;20445;-73
2022/04/26 03:43:29;;;;;;;57.87;2.80;;;;;;;;;;5093044;28;20456;-73
2022/04/26 03:45:57;;;;;;;58.03;2.63;;;;;;;;;;5094178;28;21019;-73
2022/04/26 03:48:25;;;;;;;57.67;2.50;;;;;;;;;;5093189;28;20504;-74
2022/04/26 03:50:52;;;;;;;58.10;2.50;;;;;;;;;;5094142;28;20482;-73
2022/04/26 03:53:20;;;;;;;58.07;2.50;;;;;;;;;;5094031;28;21037;-73
2022/04/26 03:55:48;;;;;;;57.97;2.70;;;;;;;;;;5094012;28;20532;-73
2022/04/26 03:58:15;;;;;;;58.60;4.00;;;;;;;;;;5093073;28;20544;-73
2022/04/26 04:00:42;;;;;;;58.03;2.77;;;;;;;;;;5093923;28;20447;-73
2022/04/26 04:03:09;;;;;;;58.03;3.13;;;;;;;;;;5093928;28;20441;-73
2022/04/26 04:05:36;;;;;;;57.73;2.60;;;;;;;;;;5093823;28;20536;-73
2022/04/26 04:08:03;;;;;;;58.13;2.80;;;;;;;;;;5092988;28;20441;-73
2022/04/26 04:10:32;;;;;;;57.90;2.60;;;;;;;;;;5093127;28;20580;-72
2022/04/26 04:12:59;;;;;;;57.90;2.47;;;;;;;;;;5093480;28;20446;-74
2022/04/26 04:15:26;;;;;;;58.07;2.60;;;;;;;;;;5093696;28;20533;-73
2022/04/26 04:17:53;;;;;;;57.77;2.60;;;;;;;;;;5092731;28;20972;-74
2022/04/26 04:20:21;;;;;;;58.97;2.90;;;;;;;;;;5093449;28;20477;-73
2022/04/26 04:22:49;;;;;;;57.87;2.50;;;;;;;;;;5093236;28;20454;-73
2022/04/26 04:25:16;;;;;;;58.20;3.10;;;;;;;;;;5093233;28;20458;-73
2022/04/26 04:27:45;;;;;;;58.10;2.90;;;;;;;;;;5092826;28;20833;-73
2022/04/26 04:30:12;;;;;;;58.10;2.73;;;;;;;;;;5093251;28;20493;-73
2022/04/26 04:32:40;;;;;;;57.97;2.50;;;;;;;;;;5093083;28;21030;-73
2022/04/26 04:35:08;;;;;;;57.77;2.40;;;;;;;;;;5093171;28;20544;-73
2022/04/26 04:37:35;;;;;;;57.90;2.87;;;;;;;;;;5092341;28;20450;-73
2022/04/26 04:40:02;;;;;;;58.00;2.50;;;;;;;;;;5093246;28;20472;-74
2022/04/26 04:42:29;;;;;;;57.97;2.60;;;;;;;;;;5093121;28;20465;-74
2022/04/26 04:44:58;;;;;;;58.50;3.00;;;;;;;;;;5093098;28;20544;-71
2022/04/26 04:47:26;;;;;;;57.97;2.60;;;;;;;;;;5092324;28;20457;-74
2022/04/26 04:49:53;;;;;;;58.30;3.43;;;;;;;;;;5092887;28;20482;-71
2022/04/26 04:52:21;;;;;;;58.00;2.70;;;;;;;;;;5092583;28;20946;-71
2022/04/26 04:54:48;;;;;;;58.10;2.70;;;;;;;;;;5092392;28;20446;-71
2022/04/26 04:57:15;;;;;;;57.77;2.53;;;;;;;;;;5092114;28;20534;-71
2022/04/26 04:59:42;;;;;;;58.10;2.60;;;;;;;;;;5092775;28;20509;-72
2022/04/26 05:02:10;;;;;;;57.87;2.60;;;;;;;;;;5092720;28;20560;-72
2022/04/26 05:04:39;;;;;;;57.97;2.77;;;;;;;;;;5092626;28;20550;-72
2022/04/26 05:07:07;;;;;;;58.07;2.70;;;;;;;;;;5092746;28;20454;-71
2022/04/26 05:09:35;;;;;;;58.00;2.50;;;;;;;;;;5092842;28;20478;-73
2022/04/26 05:12:02;;;;;;;58.03;2.50;;;;;;;;;;5092540;28;20508;-72
2022/04/26 05:14:29;;;;;;;57.97;2.60;;;;;;;;;;5092449;28;20546;-72
2022/04/26 05:16:56;;;;;;;57.93;2.50;;;;;;;;;;5092419;28;20448;-72
2022/04/26 05:19:25;;;;;;;58.17;3.30;;;;;;;;;;5091559;28;20468;-72
2022/04/26 05:21:52;;;;;;;57.97;2.60;;;;;;;;;;5092528;28;20533;-73
2022/04/26 05:27:04;;;;;;;58.23;3.73;;;;;;;;;;5092301;28;20792;-73
2022/04/26 05:29:31;;;;;;;57.87;2.70;;;;;;;;;;5091660;28;20472;-73
2022/04/26 05:31:58;;;;;;;58.20;2.90;;;;;;;;;;5091922;28;20579;-72
2022/04/26 05:34:28;;;;;;;57.90;2.87;;;;;;;;;;5092343;28;20449;-72
2022/04/26 05:36:56;;;;;;;58.13;3.10;;;;;;;;;;5092198;28;20442;-72
2022/04/26 05:39:23;;;;;;;57.87;2.60;;;;;;;;;;5091222;28;20469;-72
2022/04/26 05:41:50;;;;;;;58.80;4.53;;;;;;;;;;5092059;28;20845;-73
2022/04/26 05:44:17;;;;;;;58.17;3.00;;;;;;;;;;5091909;28;20478;-72
2022/04/26 05:46:44;;;;;;;57.87;2.60;;;;;;;;;;5092126;28;20848;-73
2022/04/26 05:49:11;;;;;;;58.00;2.47;;;;;;;;;;5091039;28;20569;-74
2022/04/26 05:51:40;;;;;;;57.83;2.70;;;;;;;;;;5092016;28;20494;-72
2022/04/26 05:54:07;;;;;;;58.07;2.67;;;;;;;;;;5092026;28;20437;-72
2022/04/26 05:56:34;;;;;;;57.73;2.60;;;;;;;;;;5091716;28;20450;-73
2022/04/26 05:59:01;;;;;;;58.03;2.70;;;;;;;;;;5090786;28;20557;-72
2022/04/26 06:01:28;;;;;;;57.63;2.50;;;;;;;;;;5091848;28;20985;-73
2022/04/26 06:03:56;;;;;;;57.87;2.50;;;;;;;;;;5091675;28;21006;-73
2022/04/26 06:06:25;;;;;;;57.97;2.73;;;;;;;;;;5092127;28;20451;-73
2022/04/26 06:08:54;;;;;;;57.83;2.70;;;;;;;;;;5095218;28;20474;-73
2022/04/26 06:11:21;;;;;;;57.87;2.80;;;;;;;;;;5095890;28;20492;-73
2022/04/26 06:13:48;;;;;;;57.93;2.60;;;;;;;;;;5095956;28;20460;-72
2022/04/26 06:16:15;;;;;;;57.93;2.70;;;;;;;;;;5096000;28;20446;-72
2022/04/26 06:18:43;;;;;;;57.87;2.70;;;;;;;;;;5095061;28;20469;-73
2022/04/26 06:21:10;;;;;;;58.00;2.60;;;;;;;;;;5095705;28;20449;-73
2022/04/26 06:23:37;;;;;;;57.90;2.50;;;;;;;;;;5095699;28;20481;-73
2022/04/26 06:26:06;;;;;;;57.63;2.70;;;;;;;;;;5095609;28;20938;-73
2022/04/26 06:28:33;;;;;;;57.57;2.60;;;;;;;;;;5094859;28;20476;-73
2022/04/26 06:31:00;;;;;;;57.97;2.80;;;;;;;;;;5095495;28;20569;-73
2022/04/26 06:33:27;;;;;;;57.63;2.63;;;;;;;;;;5092157;28;20827;-74
2022/04/26 06:35:54;;;;;;;58.00;2.67;;;;;;;;;;5094468;28;20457;-73
2022/04/26 06:38:23;;;;;;;58.13;3.43;;;;;;;;;;5093440;28;20450;-73
2022/04/26 06:40:51;;;;;;;57.93;2.50;;;;;;;;;;5094546;28;20526;-73
2022/04/26 06:43:20;;;;;;;57.80;2.80;;;;;;;;;;5094702;28;20485;-75
2022/04/26 06:45:47;;;;;;;57.77;2.70;;;;;;;;;;5094780;28;20450;-73
2022/04/26 06:48:15;;;;;;;58.07;2.80;;;;;;;;;;5093614;28;20510;-74
2022/04/26 06:50:44;;;;;;;57.90;2.80;;;;;;;;;;5094113;28;20524;-73
2022/04/26 06:53:12;;;;;;;57.77;2.77;;;;;;;;;;5094715;28;20477;-74
2022/04/26 06:55:39;;;;;;;58.30;3.43;;;;;;;;;;5094034;28;20478;-72
2022/04/26 06:58:07;;;;;;;58.00;2.70;;;;;;;;;;5091834;28;20546;-72
2022/04/26 07:00:35;;;;;;;57.80;2.80;;;;;;;;;;5093836;28;20479;-72
2022/04/26 07:03:03;;;;;;;58.00;2.67;;;;;;;;;;5093866;28;20529;-72
2022/04/26 07:05:30;;;;;;;57.97;2.63;;;;;;;;;;5094175;28;20949;-72
2022/04/26 07:07:57;;;;;;;57.77;2.50;;;;;;;;;;5093652;28;20541;-72
2022/04/26 07:10:28;;;;;;;57.83;3.00;;;;;;;;;;5094692;28;20469;-72
2022/04/26 07:12:56;;;;;;;57.77;2.80;;;;;;;;;;5094316;28;20529;-72
2022/04/26 07:15:24;;;;;;;57.87;2.60;;;;;;;;;;5094275;28;20534;-72
2022/04/26 07:17:52;;;;;;;57.67;2.70;;;;;;;;;;5092924;28;20449;-72
2022/04/26 07:20:19;;;;;;;57.87;2.60;;;;;;;;;;5093565;28;20466;-71
2022/04/26 07:22:47;;;;;;;58.17;2.90;;;;;;;;;;5093925;28;20827;-71
2022/04/26 07:25:15;;;;;;;57.90;2.80;;;;;;;;;;5094004;28;20442;-72
2022/04/26 07:27:42;;;;;;;58.10;2.60;;;;;;;;;;5093482;28;20469;-72
2022/04/26 07:30:10;;;;;;;57.70;2.63;;;;;;;;;;5094300;28;20553;-72
2022/04/26 07:35:26;;;;;;;58.20;2.90;;;;;;;;;;5055636;28;20931;-72
2022/04/26 07:37:53;;;;;;;57.67;2.80;;;;;;;;;;5072795;28;20939;-72
2022/04/26 07:40:20;;;;;;;57.97;2.70;;;;;;;;;;5073173;28;20637;-72
2022/04/26 07:42:47;;;;;;;57.97;2.67;;;;;;;;;;5073144;28;20541;-71
2022/04/26 07:45:16;;;;;;;57.97;3.10;;;;;;;;;;5073143;28;20443;-72
2022/04/26 07:47:43;;;;;;;57.87;2.60;;;;;;;;;;5072921;28;20451;-72
2022/04/26 07:50:10;;;;;;;58.03;2.60;;;;;;;;;;5073715;28;20555;-72
2022/04/26 07:52:39;;;;;;;57.87;2.60;;;;;;;;;;5073667;28;20489;-72
2022/04/26 07:55:06;;;;;;;57.77;2.70;;;;;;;;;;5073815;28;20550;-72
2022/04/26 07:57:34;;;;;;;57.63;2.50;;;;;;;;;;5073143;28;20826;-72
2022/04/26 08:00:01;;;;;;;57.77;2.53;;;;;;;;;;5073218;28;20475;-72
2022/04/26 08:02:28;;;;;;;57.83;2.70;;;;;;;;;;5072569;28;20439;-72
2022/04/26 08:05:01;;;;;;;57.60;2.50;;;;;;;;;;5069732;28;20551;-71
2022/04/26 08:07:29;;;;;;;57.77;2.63;;;;;;;;;;5072226;28;20991;-72
2022/04/26 08:09:57;;;;;;;57.83;2.50;;;;;;;;;;5072894;28;20582;-72
2022/04/26 08:12:24;;;;;;;58.17;2.90;;;;;;;;;;5073234;28;20483;-72
2022/04/26 08:14:52;;;;;;;57.73;2.70;;;;;;;;;;5073589;28;20444;-72
2022/04/26 08:17:19;;;;;;;58.40;3.13;;;;;;;;;;5072788;28;20542;-72
2022/04/26 08:19:46;;;;;;;57.47;2.50;;;;;;;;;;5072922;28;20546;-72
2022/04/26 08:22:13;;;;;;;57.53;2.50;;;;;;;;;;5072777;28;20535;-72
2022/04/26 08:27:28;;;;;;;57.37;2.50;;;;;;;;;;5071803;28;20459;-72
2022/04/26 08:29:56;;;;;;;57.67;2.40;;;;;;;;;;5072492;28;20850;-72
2022/04/26 08:32:24;;;;;;;57.70;2.50;;;;;;;;;;5072887;28;20525;-74
2022/04/26 08:34:52;;;;;;;57.77;2.60;;;;;;;;;;5071905;28;20458;-72
2022/04/26 08:37:19;;;;;;;57.70;2.53;;;;;;;;;;5068954;28;20967;-72
2022/04/26 08:39:46;;;;;;;58.10;2.87;;;;;;;;;;5072626;28;20586;-72
2022/04/26 08:42:14;;;;;;;58.00;2.60;;;;;;;;;;5072164;28;20518;-72
2022/04/26 08:44:42;;;;;;;57.87;2.50;;;;;;;;;;5072565;28;20550;-72
2022/04/26 08:52:48;;;;;;;57.67;2.50;;;;;;;;;;5072520;28;20543;-72
2022/04/26 08:55:16;;;;;;;58.10;3.10;;;;;;;;;;5072551;28;20512;-72
2022/04/26 08:57:43;;;;;;;57.87;2.50;;;;;;;;;;5071943;28;20448;-72
2022/04/26 09:00:12;;;;;;;57.90;2.50;;;;;;;;;;5071881;28;20471;-72
2022/04/26 09:02:40;;;;;;;57.77;2.50;;;;;;;;;;5071999;28;20960;-72
2022/04/26 09:05:11;;;;;;;57.97;2.50;;;;;;;;;;5072124;28;20445;-72
2022/04/26 09:07:39;;;;;;;57.67;2.73;;;;;;;;;;5073662;28;20467;-72
2022/04/26 09:10:07;;;;;;;57.80;2.57;;;;;;;;;;5091814;28;20482;-72
2022/04/26 09:12:56;;;;;;;58.03;2.57;;;;;;;;;;5092140;28;20500;-72
2022/04/26 09:15:25;;;;;;;57.87;2.73;;;;;;;;;;5092513;28;20526;-72
2022/04/26 09:17:53;;;;;;;57.77;2.40;;;;;;;;;;5091846;28;20531;-72
2022/04/26 09:20:32;;;;;;;57.87;2.50;;;;;;;;;;5092083;28;20566;-72
2022/04/26 09:23:00;;;;;;;57.87;2.80;;;;;;;;;;5091855;28;20448;-72
2022/04/26 09:25:27;;;;;;;58.70;2.87;;;;;;;;;;5091928;28;20809;-72
2022/04/26 09:27:59;;;;;;;57.77;2.47;;;;;;;;;;5090750;28;20486;-72
2022/04/26 09:30:30;;;;;;;57.97;2.50;;;;;;;;;;5091858;28;20471;-72
2022/04/26 09:32:58;;;;;;;57.60;2.53;;;;;;;;;;5092332;28;20860;-72
2022/04/26 09:35:28;;;;;;;57.17;2.40;;;;;;;;;;5092171;28;20547;-73
2022/04/26 09:37:55;;;;;;;57.60;2.30;;;;;;;;;;5090465;28;20443;-73
2022/04/26 09:40:23;;;;;;;57.80;2.30;;;;;;;;;;5074679;28;20478;-72
2022/04/26 09:42:51;;;;;;;57.47;2.30;;;;;;;;;;5070702;28;20450;-72
2022/04/26 09:45:18;;;;;;;57.57;2.40;;;;;;;;;;5071618;28;20459;-72
2022/04/26 09:47:49;;;;;;;57.77;2.97;;;;;;;;;;5070768;28;20449;-72
2022/04/26 09:50:17;;;;;;;57.97;3.20;;;;;;;;;;5070800;28;20892;-72
2022/04/26 09:52:44;;;;;;;58.00;2.80;;;;;;;;;;5071562;28;20494;-72
2022/04/26 09:55:13;;;;;;;57.67;2.63;;;;;;;;;;5071793;28;20483;-72
2022/04/26 09:57:42;;;;;;;57.67;2.40;;;;;;;;;;5071116;28;20845;-73
2022/04/26 10:00:10;;;;;;;57.77;2.33;;;;;;;;;;5071563;28;21008;-74
2022/04/26 10:02:39;;;;;;;57.80;2.50;;;;;;;;;;5070811;28;20972;-74
2022/04/26 10:05:08;;;;;;;58.10;3.23;;;;;;;;;;5070937;28;20449;-74
2022/04/26 10:07:37;;;;;;;58.10;2.70;;;;;;;;;;5070269;28;20850;-73
2022/04/26 10:10:06;;;;;;;57.80;2.40;;;;;;;;;;5069847;28;20513;-73
2022/04/26 10:12:33;;;;;;;58.23;2.77;;;;;;;;;;5067971;28;20478;-74
2022/04/26 10:15:01;;;;;;;58.20;3.23;;;;;;;;;;5071451;28;20447;-73
2022/04/26 10:17:32;;;;;;;57.70;2.50;;;;;;;;;;5070593;28;20540;-73
2022/04/26 10:20:00;;;;;;;57.77;2.30;;;;;;;;;;5071507;28;20477;-73
2022/04/26 10:22:45;;;;;;;57.50;2.63;;;;;;;;;;5070546;28;20728;-74
2022/04/26 10:25:15;;;;;;;57.70;2.40;;;;;;;;;;5071102;28;20543;-72
2022/04/26 10:27:42;;;;;;;57.50;2.27;;;;;;;;;;5069854;28;20458;-73
2022/04/26 10:30:09;;;;;;;57.70;2.47;;;;;;;;;;5070553;28;20628;-73
2022/04/26 10:32:38;;;;;;;57.40;2.43;;;;;;;;;;5070924;28;20486;-73
2022/04/26 10:35:24;;;;;;;57.87;2.10;;;;;;;;;;5071692;28;20546;-73
2022/04/26 10:38:09;;;;;;;57.00;2.00;;;;;;;;;;5070718;28;20450;-73
2022/04/26 10:40:51;;;;;;;57.53;2.07;;;;;;;;;;5071364;28;20979;-73
2022/04/26 10:43:19;;;;;;;58.10;3.13;;;;;;;;;;5070413;28;20443;-73
2022/04/26 10:46:02;;;;;;;57.47;2.00;;;;;;;;;;5090756;28;20537;-73
2022/04/26 10:48:29;;;;;;;57.73;2.97;;;;;;;;;;5089529;28;20990;-74
2022/04/26 10:50:56;;;;;;;57.53;2.40;;;;;;;;;;5090713;28;20526;-74
2022/04/26 10:53:38;;;;;;;57.27;2.00;;;;;;;;;;5093024;28;20920;-73
2022/04/26 10:56:05;;;;;;;57.77;1.97;;;;;;;;;;5095121;28;20978;-74
2022/04/26 10:58:33;;;;;;;57.17;2.10;;;;;;;;;;5094520;28;20494;-73
2022/04/26 11:01:01;;;;;;;57.80;2.33;;;;;;;;;;5094743;28;20445;-73
2022/04/26 11:03:28;;;;;;;57.17;2.40;;;;;;;;;;5094945;28;20445;-73
2022/04/26 11:05:55;;;;;;;57.80;2.10;;;;;;;;;;5094281;28;20962;-73
2022/04/26 11:08:22;;;;;;;57.67;2.47;;;;;;;;;;5093756;28;20448;-72
2022/04/26 11:11:02;;;;;;;57.37;2.00;;;;;;;;;;5094372;28;20529;-73
2022/04/26 11:13:38;;;;;;;57.27;2.00;;;;;;;;;;5093376;28;21004;-72
2022/04/26 11:16:12;;;;;;;57.60;2.53;;;;;;;;;;5091464;28;20940;-73
2022/04/26 11:18:42;;;;;;;57.23;1.90;;;;;;;;;;5094060;28;20462;-72
2022/04/26 11:21:09;;;;;;;57.17;2.00;;;;;;;;;;5094549;28;20478;-73
2022/04/26 11:29:26;;;;;;;57.47;2.13;;;;;;;;;;5093260;28;20460;-73
2022/04/26 11:31:54;;;;;;;57.73;2.10;;;;;;;;;;5094312;28;20491;-73
2022/04/26 11:34:41;;;;;;;57.23;2.50;;;;;;;;;;5094012;28;20449;-73
2022/04/26 11:37:11;;;;;;;57.87;2.20;;;;;;;;;;5094138;28;20479;-72
2022/04/26 11:39:40;;;;;;;58.07;2.50;;;;;;;;;;5094230;28;20479;-72
2022/04/26 11:42:08;;;;;;;58.17;2.97;;;;;;;;;;5093923;28;20460;-71
2022/04/26 11:44:37;;;;;;;58.03;2.43;;;;;;;;;;5093677;28;20458;-72
2022/04/26 11:47:04;;;;;;;58.07;2.50;;;;;;;;;;5085915;28;20518;-72
2022/04/26 11:49:40;;;;;;;57.77;2.70;;;;;;;;;;5072485;28;20564;-72
2022/04/26 11:52:08;;;;;;;57.93;2.40;;;;;;;;;;5072803;28;20448;-73
2022/04/26 11:54:35;;;;;;;57.93;2.70;;;;;;;;;;5073407;28;20452;-71
2022/04/26 11:57:03;;;;;;;57.80;2.33;;;;;;;;;;5073660;28;20894;-72
2022/04/26 11:59:30;;;;;;;57.67;2.60;;;;;;;;;;5072915;28;20470;-73
2022/04/26 12:01:59;;;;;;;57.77;2.27;;;;;;;;;;5073534;28;20451;-72
2022/04/26 12:04:26;;;;;;;58.40;2.80;;;;;;;;;;5072641;28;20530;-72
2022/04/26 12:06:54;;;;;;;57.53;2.30;;;;;;;;;;5073232;28;20453;-71
2022/04/26 12:09:23;;;;;;;57.53;2.50;;;;;;;;;;5072245;28;20471;-73
2022/04/26 12:12:00;;;;;;;57.20;2.47;;;;;;;;;;5072439;28;20474;-73
2022/04/26 12:14:28;;;;;;;57.80;2.23;;;;;;;;;;5073075;28;20475;-73
2022/04/26 12:16:55;;;;;;;57.37;2.10;;;;;;;;;;5073755;28;20494;-73
2022/04/26 12:19:34;;;;;;;57.33;2.00;;;;;;;;;;5079826;28;20527;-74
2022/04/26 12:22:01;;;;;;;57.47;1.97;;;;;;;;;;5093429;28;20530;-73
2022/04/26 12:24:29;;;;;;;57.47;2.40;;;;;;;;;;5092797;28;21018;-73
2022/04/26 12:26:58;;;;;;;57.77;2.30;;;;;;;;;;5093033;28;20446;-75
2022/04/26 12:29:26;;;;;;;57.80;2.10;;;;;;;;;;5077529;28;20571;-75
2022/04/26 12:31:53;;;;;;;57.37;2.00;;;;;;;;;;5072266;28;20545;-74
2022/04/26 12:34:22;;;;;;;57.27;2.00;;;;;;;;;;5072677;28;20521;-74
2022/04/26 12:36:55;;;;;;;57.40;1.90;;;;;;;;;;5073240;28;20536;-74
2022/04/26 12:39:22;;;;;;;58.10;2.10;;;;;;;;;;5072188;28;20503;-74
2022/04/26 12:41:50;;;;;;;57.77;2.33;;;;;;;;;;5072916;28;20502;-74
2022/04/26 12:44:17;;;;;;;57.47;2.00;;;;;;;;;;5072761;28;20450;-73
2022/04/26 12:50:28;;;;;;;57.87;2.57;;;;;;;;;;5072543;28;20455;-73
2022/04/26 12:52:37;;;;;;;58.00;2.50;;;;;;;;;;5072480;28;20490;-74
2022/04/26 12:55:04;;;;;;;57.77;2.20;;;;;;;;;;5070307;28;20873;-72
2022/04/26 12:57:32;;;;;;;58.00;2.50;;;;;;;;;;5071092;28;20532;-74
2022/04/26 12:59:59;;;;;;;58.27;2.53;;;;;;;;;;5072028;28;20560;-72
2022/04/26 13:02:26;;;;;;;58.50;3.30;;;;;;;;;;5072190;28;20534;-73
2022/04/26 13:04:53;;;;;;;58.10;2.70;;;;;;;;;;5072134;28;20809;-73
2022/04/26 13:07:20;;;;;;;58.00;2.60;;;;;;;;;;5070742;28;20543;-72
2022/04/26 13:09:49;;;;;;;57.73;2.50;;;;;;;;;;5071192;28;20471;-72
2022/04/26 13:12:16;;;;;;;58.10;2.40;;;;;;;;;;5071547;28;20469;-72
2022/04/26 13:14:43;;;;;;;58.00;2.47;;;;;;;;;;5072164;28;20447;-72
2022/04/26 13:17:10;;;;;;;57.97;2.83;;;;;;;;;;5069429;28;20494;-72
2022/04/26 13:19:37;;;;;;;57.80;2.60;;;;;;;;;;5072040;28;20485;-73
2022/04/26 13:22:04;;;;;;;58.07;2.60;;;;;;;;;;5071914;28;20447;-72
2022/04/26 13:24:32;;;;;;;57.90;2.53;;;;;;;;;;5071831;28;20480;-72
2022/04/26 13:27:00;;;;;;;57.77;2.60;;;;;;;;;;5069831;28;20448;-71
2022/04/26 13:29:27;;;;;;;58.00;2.70;;;;;;;;;;5091061;28;20469;-74
2022/04/26 13:31:55;;;;;;;57.90;2.60;;;;;;;;;;5092148;28;20836;-73
2022/04/26 13:34:22;;;;;;;58.00;2.60;;;;;;;;;;5091777;28;20486;-74
2022/04/26 13:36:49;;;;;;;57.87;2.50;;;;;;;;;;5091299;28;20540;-73
2022/04/26 13:39:17;;;;;;;57.70;2.57;;;;;;;;;;5091222;28;20877;-73
2022/04/26 13:41:44;;;;;;;57.53;2.37;;;;;;;;;;5092170;28;20500;-74
2022/04/26 13:44:13;;;;;;;57.80;2.70;;;;;;;;;;5091957;28;20445;-75
2022/04/26 13:46:40;;;;;;;57.97;2.30;;;;;;;;;;5091673;28;20543;-73
2022/04/26 13:49:07;;;;;;;57.97;2.53;;;;;;;;;;5090502;28;20573;-73
2022/04/26 13:51:34;;;;;;;57.97;2.30;;;;;;;;;;5091572;28;20696;-72
2022/04/26 13:54:01;;;;;;;57.87;2.40;;;;;;;;;;5091058;28;21019;-72
2022/04/26 13:56:28;;;;;;;57.80;2.37;;;;;;;;;;5091234;28;20501;-73
2022/04/26 13:58:56;;;;;;;57.57;2.10;;;;;;;;;;5081787;28;21020;-74
2022/04/26 14:01:24;;;;;;;57.57;2.40;;;;;;;;;;5071572;28;20449;-73
2022/04/26 14:03:51;;;;;;;57.90;2.80;;;;;;;;;;5071441;28;20454;-76
2022/04/26 14:06:21;;;;;;;57.47;2.17;;;;;;;;;;5070830;28;20538;-75
2022/04/26 14:08:49;;;;;;;57.37;2.20;;;;;;;;;;5070530;28;20473;-74
2022/04/26 14:11:17;;;;;;;57.43;1.90;;;;;;;;;;5070961;28;20457;-72
2022/04/26 14:21:59;;;;;;;57.70;2.00;;;;;;;;;;5071589;28;20931;-74
2022/04/26 14:24:26;;;;;;;57.07;2.20;;;;;;;;;;5069961;28;20454;-75
2022/04/26 14:26:54;;;;;;;57.37;1.90;;;;;;;;;;5070093;28;20511;-74
2022/04/26 14:29:21;;;;;;;56.87;1.90;;;;;;;;;;5072635;28;20481;-74
2022/04/26 14:31:51;;;;;;;57.63;2.00;;;;;;;;;;5089609;28;20536;-74
2022/04/26 14:34:18;;;;;;;57.40;2.20;;;;;;;;;;5095574;28;20544;-74
2022/04/26 14:36:45;;;;;;;57.13;2.00;;;;;;;;;;5095028;28;20486;-73
2022/04/26 14:39:13;;;;;;;57.30;2.10;;;;;;;;;;5093675;28;20501;-71
2022/04/26 14:41:41;;;;;;;57.07;2.40;;;;;;;;;;5095189;28;20898;-72
2022/04/26 14:44:08;;;;;;;57.30;2.20;;;;;;;;;;5095504;28;20445;-72
2022/04/26 14:46:35;;;;;;;57.70;2.10;;;;;;;;;;5094067;28;21042;-72
2022/04/26 14:49:04;;;;;;;57.47;2.33;;;;;;;;;;5094213;28;20479;-72
2022/04/26 14:51:31;;;;;;;57.43;2.60;;;;;;;;;;5094475;28;20452;-72
2022/04/26 14:53:59;;;;;;;57.50;2.33;;;;;;;;;;5094878;28;21087;-74
2022/04/26 14:56:26;;;;;;;57.43;2.00;;;;;;;;;;5094631;28;20459;-73
2022/04/26 14:58:53;;;;;;;57.73;2.53;;;;;;;;;;5094184;28;20510;-72
2022/04/26 15:01:20;;;;;;;57.53;2.33;;;;;;;;;;5091896;28;20696;-72
2022/04/26 15:03:48;;;;;;;57.77;2.40;;;;;;;;;;5094073;28;20863;-72
2022/04/26 15:06:16;;;;;;;57.77;2.30;;;;;;;;;;5094332;28;20463;-73
2022/04/26 15:11:28;;;;;;;58.07;2.50;;;;;;;;;;5094189;28;20825;-73
2022/04/26 15:16:42;;;;;;;57.63;2.30;;;;;;;;;;5094473;28;20922;-73
2022/04/26 15:19:10;;;;;;;57.47;2.90;;;;;;;;;;5093546;28;20484;-74
2022/04/26 15:21:39;;;;;;;57.37;2.30;;;;;;;;;;5095024;28;20446;-69
2022/04/26 15:24:07;;;;;;;57.77;2.30;;;;;;;;;;5094668;28;20537;-72
2022/04/26 15:26:36;;;;;;;57.50;2.30;;;;;;;;;;5094342;28;20898;-73
2022/04/26 15:29:04;;;;;;;57.63;2.20;;;;;;;;;;5093408;28;20483;-73
2022/04/26 15:31:31;;;;;;;57.57;2.40;;;;;;;;;;5093861;28;20460;-73
2022/04/26 15:33:58;;;;;;;57.77;2.30;;;;;;;;;;5083828;28;20492;-73
2022/04/26 15:36:25;;;;;;;57.67;2.30;;;;;;;;;;5073722;28;20446;-72
2022/04/26 15:38:56;;;;;;;57.77;2.40;;;;;;;;;;5072071;28;20448;-72
2022/04/26 15:41:24;;;;;;;57.87;2.40;;;;;;;;;;5073783;28;20489;-72
2022/04/26 15:43:51;;;;;;;57.97;2.40;;;;;;;;;;5074265;28;20450;-71
2022/04/26 15:46:18;;;;;;;57.80;2.70;;;;;;;;;;5093764;28;20454;-71
2022/04/26 15:48:48;;;;;;;57.77;2.50;;;;;;;;;;5092864;28;20512;-72
2022/04/26 15:51:16;;;;;;;57.87;2.80;;;;;;;;;;5094591;28;20456;-74
2022/04/26 15:53:45;;;;;;;57.93;2.40;;;;;;;;;;5092802;28;20483;-75
2022/04/26 15:56:14;;;;;;;57.73;2.50;;;;;;;;;;5093500;28;20451;-73
2022/04/26 15:58:42;;;;;;;57.63;2.60;;;;;;;;;;5094000;28;20475;-73
2022/04/26 16:01:09;;;;;;;57.77;2.50;;;;;;;;;;5093977;28;20448;-73
2022/04/26 16:03:36;;;;;;;57.67;2.50;;;;;;;;;;5094764;28;20438;-73
2022/04/26 16:06:04;;;;;;;57.83;2.50;;;;;;;;;;5094485;28;20453;-73
2022/04/26 16:08:35;;;;;;;57.77;2.40;;;;;;;;;;5093314;28;20954;-73
2022/04/26 16:22:00;;;;;;;57.87;2.40;;;;;;;;;;5094502;28;20833;-71
2022/04/26 16:24:27;;;;;;;57.57;2.40;;;;;;;;;;5093947;28;20499;-72
2022/04/26 16:26:55;;;;;;;57.67;2.50;;;;;;;;;;5093865;28;20447;-71
2022/04/26 16:29:25;;;;;;;58.67;2.83;;;;;;;;;;5093568;28;20904;-71
2022/04/26 16:31:52;;;;;;;57.90;2.80;;;;;;;;;;5093959;28;20442;-72
2022/04/26 16:34:20;;;;;;;58.00;2.57;;;;;;;;;;5093391;28;20895;-72
2022/04/26 16:36:47;;;;;;;58.00;2.50;;;;;;;;;;5093457;28;20524;-72
2022/04/26 16:39:15;;;;;;;57.87;2.63;;;;;;;;;;5092510;28;20471;-72
2022/04/26 16:41:42;;;;;;;57.47;2.60;;;;;;;;;;5093449;28;20447;-72
2022/04/26 16:44:09;;;;;;;57.77;2.50;;;;;;;;;;5093216;28;20480;-72
2022/04/26 16:46:37;;;;;;;57.67;2.50;;;;;;;;;;5093123;28;20453;-72
2022/04/26 16:49:04;;;;;;;57.77;2.50;;;;;;;;;;5092103;28;20478;-72
2022/04/26 16:51:34;;;;;;;57.70;2.60;;;;;;;;;;5093213;28;20537;-72
2022/04/26 16:54:01;;;;;;;57.73;2.40;;;;;;;;;;5093222;28;20482;-72
2022/04/26 16:56:29;;;;;;;57.70;2.40;;;;;;;;;;5093359;28;20489;-73
2022/04/26 16:58:56;;;;;;;57.47;2.50;;;;;;;;;;5092205;28;20550;-74
2022/04/26 17:01:23;;;;;;;57.57;2.30;;;;;;;;;;5092685;28;20533;-73
2022/04/26 17:03:51;;;;;;;57.80;2.50;;;;;;;;;;5092963;28;20525;-73
2022/04/26 17:06:20;;;;;;;57.77;2.53;;;;;;;;;;5093187;28;20538;-70
2022/04/26 17:08:48;;;;;;;57.67;2.50;;;;;;;;;;5091824;28;20983;-73
2022/04/26 17:14:00;;;;;;;57.87;2.57;;;;;;;;;;5092371;28;20489;-73
2022/04/26 17:16:27;;;;;;;57.93;2.60;;;;;;;;;;5092683;28;20446;-73
2022/04/26 17:18:55;;;;;;;57.93;2.33;;;;;;;;;;5091930;28;20473;-74
2022/04/26 17:21:23;;;;;;;57.77;2.60;;;;;;;;;;5092583;28;20477;-73
2022/04/26 17:23:50;;;;;;;57.87;2.40;;;;;;;;;;5092743;28;20447;-73
2022/04/26 17:26:18;;;;;;;57.97;2.70;;;;;;;;;;5092226;28;20450;-73
2022/04/26 17:28:45;;;;;;;57.97;2.50;;;;;;;;;;5091481;28;20496;-74
2022/04/26 17:31:14;;;;;;;58.07;2.53;;;;;;;;;;5092498;28;20835;-73
2022/04/26 17:33:41;;;;;;;58.07;2.73;;;;;;;;;;5092378;28;20478;-74
2022/04/26 17:36:10;;;;;;;57.87;2.50;;;;;;;;;;5092576;28;20545;-73
2022/04/26 17:38:38;;;;;;;57.70;2.40;;;;;;;;;;5091423;28;20473;-73
2022/04/26 17:41:05;;;;;;;58.07;2.50;;;;;;;;;;5092160;28;20454;-74
2022/04/26 17:43:33;;;;;;;57.87;2.53;;;;;;;;;;5091962;28;20454;-73
2022/04/26 17:46:00;;;;;;;58.30;2.80;;;;;;;;;;5092099;28;20442;-73
2022/04/26 17:48:28;;;;;;;58.40;4.00;;;;;;;;;;5091281;28;20619;-73
2022/04/26 17:50:55;;;;;;;58.07;2.33;;;;;;;;;;5092109;28;20453;-73
2022/04/26 17:58:53;;;;;;;57.93;2.30;;;;;;;;;;5091293;28;20482;-73
2022/04/26 18:01:20;;;;;;;58.00;2.60;;;;;;;;;;5092002;28;20525;-73
2022/04/26 18:03:47;;;;;;;57.73;2.37;;;;;;;;;;5091173;28;20454;-73
2022/04/26 18:06:16;;;;;;;57.77;2.60;;;;;;;;;;5091996;28;20445;-73
2022/04/26 18:08:45;;;;;;;58.07;2.40;;;;;;;;;;5091151;28;20470;-73
2022/04/26 18:11:14;;;;;;;57.83;2.40;;;;;;;;;;5091962;28;20529;-73
2022/04/26 18:13:41;;;;;;;57.77;2.53;;;;;;;;;;5091689;28;20537;-73
2022/04/26 18:16:09;;;;;;;57.97;2.50;;;;;;;;;;5091692;28;20478;-73
2022/04/26 18:18:36;;;;;;;57.87;2.57;;;;;;;;;;5090916;28;20556;-73
2022/04/26 18:21:04;;;;;;;58.10;2.40;;;;;;;;;;5091937;28;20541;-73
2022/04/26 18:23:31;;;;;;;57.97;2.40;;;;;;;;;;5091768;28;21014;-73
2022/04/26 18:26:12;;;;;;;61.90;2.70;;;;;;;;;;5086213;28;20483;-73
2022/04/26 18:28:39;;;;;;;57.77;2.50;;;;;;;;;;5089841;28;20262;-72
2022/04/26 18:31:07;;;;;;;57.80;2.37;;;;;;;;;;5090546;28;20871;-74
2022/04/26 18:33:34;;;;;;;57.67;2.50;;;;;;;;;;5091113;28;20892;-72
2022/04/26 18:36:02;;;;;;;57.63;2.33;;;;;;;;;;5090368;28;20482;-72
2022/04/26 18:38:29;;;;;;;57.97;2.50;;;;;;;;;;5090051;28;20450;-71
2022/04/26 18:40:58;;;;;;;57.83;2.60;;;;;;;;;;5090680;28;20450;-71
2022/04/26 18:43:26;;;;;;;57.80;2.47;;;;;;;;;;5090273;28;20497;-72
2022/04/26 18:45:54;;;;;;;57.63;2.30;;;;;;;;;;5090610;28;20485;-72
2022/04/26 18:48:21;;;;;;;57.67;2.40;;;;;;;;;;5089405;28;20537;-73
2022/04/26 18:50:48;;;;;;;58.00;2.60;;;;;;;;;;5090610;28;20449;-72
2022/04/26 18:53:15;;;;;;;57.77;2.50;;;;;;;;;;5090798;28;20448;-71
2022/04/26 18:55:42;;;;;;;57.87;2.50;;;;;;;;;;5090465;28;20482;-71
2022/04/26 18:58:11;;;;;;;57.93;2.80;;;;;;;;;;5089513;28;20481;-70
2022/04/26 19:00:40;;;;;;;57.77;2.40;;;;;;;;;;5091175;28;20442;-71
2022/04/26 19:03:07;;;;;;;57.97;2.47;;;;;;;;;;5090762;28;20450;-71
2022/04/26 19:05:35;;;;;;;58.07;2.80;;;;;;;;;;5090540;28;20529;-73
2022/04/26 19:08:02;;;;;;;57.93;2.30;;;;;;;;;;5089635;28;20452;-72